sensor_id;sensor_type;location;lat;lon;timestamp;P1;durP1;ratioP1;P2;durP2;ratioP2
23206;SDS011;11773;52.570;13.052;2023-04-29T00:00:08;1.80;;;1.70;;
23206;SDS011;11773;52.570;13.052;2023-04-29T00:02:38;1.67;;;1.50;;
23206;SDS011;11773;52.570;13.052;2023-04-29T00:05:08;1.53;;;1.43;;
23206;SDS011;11773;52.570;13.052;2023-04-29T00:07:38;1.40;;;1.30;;
23206;SDS011;11773;52.570;13.052;2023-04-29T00:10:09;1.70;;;1.60;;
23206;SDS011;11773;52.570;13.052;2023-04-29T00:12:40;1.67;;;1.57;;
23206;SDS011;11773;52.570;13.052;2023-04-29T00:15:10;1.10;;;1.10;;
23206;SDS011;11773;52.570;13.052;2023-04-29T00:17:40;1.30;;;1.20;;
23206;SDS011;11773;52.570;13.052;2023-04-29T00:20:09;0.80;;;0.80;;
23206;SDS011;11773;52.570;13.052;2023-04-29T00:22:39;1.07;;;1.03;;
23206;SDS011;11773;52.570;13.052;2023-04-29T00:25:09;0.93;;;0.90;;
23206;SDS011;11773;52.570;13.052;2023-04-29T00:27:38;1.50;;;1.40;;
23206;SDS011;11773;52.570;13.052;2023-04-29T00:30:08;1.40;;;1.30;;
23206;SDS011;11773;52.570;13.052;2023-04-29T00:32:38;2.40;;;2.20;;
23206;SDS011;11773;52.570;13.052;2023-04-29T00:35:07;2.50;;;2.30;;
23206;SDS011;11773;52.570;13.052;2023-04-29T00:37:37;2.20;;;2.10;;
23206;SDS011;11773;52.570;13.052;2023-04-29T00:40:07;2.27;;;2.07;;
23206;SDS011;11773;52.570;13.052;2023-04-29T00:42:39;1.50;;;1.40;;
23206;SDS011;11773;52.570;13.052;2023-04-29T00:45:09;1.40;;;1.30;;
23206;SDS011;11773;52.570;13.052;2023-04-29T00:47:39;1.60;;;1.50;;
23206;SDS011;11773;52.570;13.052;2023-04-29T00:50:08;1.17;;;1.17;;
23206;SDS011;11773;52.570;13.052;2023-04-29T00:52:38;1.30;;;1.20;;
23206;SDS011;11773;52.570;13.052;2023-04-29T00:55:08;1.57;;;1.30;;
23206;SDS011;11773;52.570;13.052;2023-04-29T00:57:39;1.10;;;1.00;;
23206;SDS011;11773;52.570;13.052;2023-04-29T01:00:09;1.03;;;1.03;;
23206;SDS011;11773;52.570;13.052;2023-04-29T01:02:39;1.40;;;1.30;;
23206;SDS011;11773;52.570;13.052;2023-04-29T01:05:09;1.57;;;1.47;;
23206;SDS011;11773;52.570;13.052;2023-04-29T01:07:42;1.30;;;1.20;;
23206;SDS011;11773;52.570;13.052;2023-04-29T01:10:28;1.97;;;1.80;;
23206;SDS011;11773;52.570;13.052;2023-04-29T01:13:16;1.40;;;1.30;;
23206;SDS011;11773;52.570;13.052;2023-04-29T01:16:10;1.80;;;1.70;;
23206;SDS011;11773;52.570;13.052;2023-04-29T01:18:42;1.37;;;1.27;;
23206;SDS011;11773;52.570;13.052;2023-04-29T01:21:15;1.50;;;1.40;;
23206;SDS011;11773;52.570;13.052;2023-04-29T01:23:45;1.60;;;1.50;;
23206;SDS011;11773;52.570;13.052;2023-04-29T01:26:17;1.70;;;1.60;;
23206;SDS011;11773;52.570;13.052;2023-04-29T01:31:50;1.60;;;1.50;;
23206;SDS011;11773;52.570;13.052;2023-04-29T01:38:08;1.10;;;1.10;;
23206;SDS011;11773;52.570;13.052;2023-04-29T01:40:15;1.23;;;0.90;;
23206;SDS011;11773;52.570;13.052;2023-04-29T01:42:57;1.30;;;1.20;;
23206;SDS011;11773;52.570;13.052;2023-04-29T01:45:31;1.33;;;1.23;;
23206;SDS011;11773;52.570;13.052;2023-04-29T01:48:03;1.53;;;1.43;;
23206;SDS011;11773;52.570;13.052;2023-04-29T01:50:33;1.70;;;1.60;;
23206;SDS011;11773;52.570;13.052;2023-04-29T01:53:03;1.63;;;1.53;;
23206;SDS011;11773;52.570;13.052;2023-04-29T01:55:34;1.80;;;1.70;;
23206;SDS011;11773;52.570;13.052;2023-04-29T01:58:03;1.43;;;1.33;;
23206;SDS011;11773;52.570;13.052;2023-04-29T02:00:33;1.80;;;1.70;;
23206;SDS011;11773;52.570;13.052;2023-04-29T02:03:04;2.03;;;1.90;;
23206;SDS011;11773;52.570;13.052;2023-04-29T02:05:33;1.60;;;1.50;;
23206;SDS011;11773;52.570;13.052;2023-04-29T02:08:03;2.17;;;2.00;;
23206;SDS011;11773;52.570;13.052;2023-04-29T02:10:33;2.00;;;1.53;;
23206;SDS011;11773;52.570;13.052;2023-04-29T02:13:03;2.27;;;2.07;;
23206;SDS011;11773;52.570;13.052;2023-04-29T02:15:33;2.13;;;2.03;;
23206;SDS011;11773;52.570;13.052;2023-04-29T02:18:02;2.13;;;1.93;;
23206;SDS011;11773;52.570;13.052;2023-04-29T02:20:32;1.70;;;1.60;;
23206;SDS011;11773;52.570;13.052;2023-04-29T02:23:01;1.93;;;1.83;;
23206;SDS011;11773;52.570;13.052;2023-04-29T02:25:31;1.60;;;1.50;;
23206;SDS011;11773;52.570;13.052;2023-04-29T02:28:00;1.60;;;1.50;;
23206;SDS011;11773;52.570;13.052;2023-04-29T02:30:30;1.40;;;1.30;;
23206;SDS011;11773;52.570;13.052;2023-04-29T02:33:00;1.60;;;1.50;;
23206;SDS011;11773;52.570;13.052;2023-04-29T02:35:31;1.70;;;1.50;;
23206;SDS011;11773;52.570;13.052;2023-04-29T02:38:00;1.50;;;1.40;;
23206;SDS011;11773;52.570;13.052;2023-04-29T02:40:30;1.30;;;1.20;;
23206;SDS011;11773;52.570;13.052;2023-04-29T02:42:59;1.10;;;1.10;;
23206;SDS011;11773;52.570;13.052;2023-04-29T02:45:29;1.57;;;1.47;;
23206;SDS011;11773;52.570;13.052;2023-04-29T02:47:58;1.40;;;1.30;;
23206;SDS011;11773;52.570;13.052;2023-04-29T02:50:28;1.40;;;1.30;;
23206;SDS011;11773;52.570;13.052;2023-04-29T02:52:57;1.50;;;1.40;;
23206;SDS011;11773;52.570;13.052;2023-04-29T02:55:27;2.20;;;2.07;;
23206;SDS011;11773;52.570;13.052;2023-04-29T02:57:56;1.50;;;1.40;;
23206;SDS011;11773;52.570;13.052;2023-04-29T03:00:26;2.00;;;1.83;;
23206;SDS011;11773;52.570;13.052;2023-04-29T03:02:56;1.73;;;1.63;;
23206;SDS011;11773;52.570;13.052;2023-04-29T03:05:26;1.47;;;1.37;;
23206;SDS011;11773;52.570;13.052;2023-04-29T03:07:55;1.53;;;1.43;;
23206;SDS011;11773;52.570;13.052;2023-04-29T03:10:25;1.13;;;1.13;;
23206;SDS011;11773;52.570;13.052;2023-04-29T03:12:54;2.07;;;1.97;;
23206;SDS011;11773;52.570;13.052;2023-04-29T03:15:24;1.67;;;1.57;;
23206;SDS011;11773;52.570;13.052;2023-04-29T03:17:53;1.37;;;1.27;;
23206;SDS011;11773;52.570;13.052;2023-04-29T03:20:24;1.47;;;1.37;;
23206;SDS011;11773;52.570;13.052;2023-04-29T03:22:55;1.60;;;1.50;;
23206;SDS011;11773;52.570;13.052;2023-04-29T03:25:26;1.40;;;1.30;;
23206;SDS011;11773;52.570;13.052;2023-04-29T03:27:56;2.03;;;1.93;;
23206;SDS011;11773;52.570;13.052;2023-04-29T03:30:25;1.73;;;1.63;;
23206;SDS011;11773;52.570;13.052;2023-04-29T03:32:55;1.57;;;1.47;;
23206;SDS011;11773;52.570;13.052;2023-04-29T03:35:24;1.83;;;1.60;;
23206;SDS011;11773;52.570;13.052;2023-04-29T03:37:54;1.70;;;1.60;;
23206;SDS011;11773;52.570;13.052;2023-04-29T03:40:23;1.57;;;1.47;;
23206;SDS011;11773;52.570;13.052;2023-04-29T03:42:53;1.47;;;1.37;;
23206;SDS011;11773;52.570;13.052;2023-04-29T03:45:22;2.10;;;1.90;;
23206;SDS011;11773;52.570;13.052;2023-04-29T03:47:52;1.60;;;1.50;;
23206;SDS011;11773;52.570;13.052;2023-04-29T03:50:21;1.73;;;1.63;;
23206;SDS011;11773;52.570;13.052;2023-04-29T03:52:52;1.63;;;1.53;;
23206;SDS011;11773;52.570;13.052;2023-04-29T03:55:22;1.40;;;1.30;;
23206;SDS011;11773;52.570;13.052;2023-04-29T03:57:51;1.87;;;1.77;;
23206;SDS011;11773;52.570;13.052;2023-04-29T04:00:21;2.33;;;2.13;;
23206;SDS011;11773;52.570;13.052;2023-04-29T04:02:52;1.73;;;1.63;;
23206;SDS011;11773;52.570;13.052;2023-04-29T04:05:22;1.80;;;1.60;;
23206;SDS011;11773;52.570;13.052;2023-04-29T04:07:52;1.80;;;1.70;;
23206;SDS011;11773;52.570;13.052;2023-04-29T04:10:22;1.90;;;1.77;;
23206;SDS011;11773;52.570;13.052;2023-04-29T04:12:51;1.77;;;1.67;;
23206;SDS011;11773;52.570;13.052;2023-04-29T04:15:21;2.63;;;2.43;;
23206;SDS011;11773;52.570;13.052;2023-04-29T04:17:51;1.50;;;1.40;;
23206;SDS011;11773;52.570;13.052;2023-04-29T04:20:20;1.50;;;1.40;;
23206;SDS011;11773;52.570;13.052;2023-04-29T04:22:50;1.77;;;1.67;;
23206;SDS011;11773;52.570;13.052;2023-04-29T04:25:20;1.83;;;1.73;;
23206;SDS011;11773;52.570;13.052;2023-04-29T04:27:50;2.00;;;1.90;;
23206;SDS011;11773;52.570;13.052;2023-04-29T04:30:20;1.93;;;1.77;;
23206;SDS011;11773;52.570;13.052;2023-04-29T04:32:50;1.73;;;1.63;;
23206;SDS011;11773;52.570;13.052;2023-04-29T04:35:19;1.63;;;1.53;;
23206;SDS011;11773;52.570;13.052;2023-04-29T04:37:49;1.77;;;1.67;;
23206;SDS011;11773;52.570;13.052;2023-04-29T04:40:18;1.55;;;1.45;;
23206;SDS011;11773;52.570;13.052;2023-04-29T04:42:49;2.23;;;2.00;;
23206;SDS011;11773;52.570;13.052;2023-04-29T04:45:20;2.00;;;1.80;;
23206;SDS011;11773;52.570;13.052;2023-04-29T04:47:49;1.77;;;1.67;;
23206;SDS011;11773;52.570;13.052;2023-04-29T04:50:19;2.00;;;1.90;;
23206;SDS011;11773;52.570;13.052;2023-04-29T04:52:48;1.80;;;1.70;;
23206;SDS011;11773;52.570;13.052;2023-04-29T04:55:18;1.93;;;1.83;;
23206;SDS011;11773;52.570;13.052;2023-04-29T04:57:47;1.83;;;1.73;;
23206;SDS011;11773;52.570;13.052;2023-04-29T05:00:17;2.10;;;1.90;;
23206;SDS011;11773;52.570;13.052;2023-04-29T05:02:47;1.70;;;1.60;;
23206;SDS011;11773;52.570;13.052;2023-04-29T05:05:17;2.30;;;2.10;;
23206;SDS011;11773;52.570;13.052;2023-04-29T05:07:46;1.87;;;1.77;;
23206;SDS011;11773;52.570;13.052;2023-04-29T05:10:16;1.93;;;1.83;;
23206;SDS011;11773;52.570;13.052;2023-04-29T05:12:45;2.10;;;1.90;;
23206;SDS011;11773;52.570;13.052;2023-04-29T05:15:15;2.40;;;2.20;;
23206;SDS011;11773;52.570;13.052;2023-04-29T05:17:45;2.40;;;2.20;;
23206;SDS011;11773;52.570;13.052;2023-04-29T05:20:14;1.87;;;1.77;;
23206;SDS011;11773;52.570;13.052;2023-04-29T05:22:44;2.30;;;2.10;;
23206;SDS011;11773;52.570;13.052;2023-04-29T05:25:13;1.90;;;1.80;;
23206;SDS011;11773;52.570;13.052;2023-04-29T05:27:43;1.80;;;1.70;;
23206;SDS011;11773;52.570;13.052;2023-04-29T05:30:12;1.70;;;1.60;;
23206;SDS011;11773;52.570;13.052;2023-04-29T05:32:42;2.00;;;1.80;;
23206;SDS011;11773;52.570;13.052;2023-04-29T05:35:17;1.73;;;1.63;;
23206;SDS011;11773;52.570;13.052;2023-04-29T05:37:48;1.90;;;1.80;;
23206;SDS011;11773;52.570;13.052;2023-04-29T05:40:17;1.87;;;1.77;;
23206;SDS011;11773;52.570;13.052;2023-04-29T05:42:48;1.77;;;1.67;;
23206;SDS011;11773;52.570;13.052;2023-04-29T05:45:18;1.97;;;1.87;;
23206;SDS011;11773;52.570;13.052;2023-04-29T05:47:47;2.90;;;2.70;;
23206;SDS011;11773;52.570;13.052;2023-04-29T05:50:17;2.40;;;2.20;;
23206;SDS011;11773;52.570;13.052;2023-04-29T05:52:46;2.40;;;2.20;;
23206;SDS011;11773;52.570;13.052;2023-04-29T05:55:17;3.03;;;2.73;;
23206;SDS011;11773;52.570;13.052;2023-04-29T05:57:47;2.97;;;2.73;;
23206;SDS011;11773;52.570;13.052;2023-04-29T06:00:17;2.60;;;2.40;;
23206;SDS011;11773;52.570;13.052;2023-04-29T06:02:47;2.30;;;2.10;;
23206;SDS011;11773;52.570;13.052;2023-04-29T06:05:18;2.37;;;2.13;;
23206;SDS011;11773;52.570;13.052;2023-04-29T06:07:48;2.90;;;2.60;;
23206;SDS011;11773;52.570;13.052;2023-04-29T06:10:17;2.43;;;2.23;;
23206;SDS011;11773;52.570;13.052;2023-04-29T06:12:47;2.67;;;2.47;;
23206;SDS011;11773;52.570;13.052;2023-04-29T06:15:17;1.97;;;1.83;;
23206;SDS011;11773;52.570;13.052;2023-04-29T06:17:47;1.90;;;1.80;;
23206;SDS011;11773;52.570;13.052;2023-04-29T06:20:16;2.40;;;2.20;;
23206;SDS011;11773;52.570;13.052;2023-04-29T06:22:46;3.23;;;2.93;;
23206;SDS011;11773;52.570;13.052;2023-04-29T06:25:15;3.10;;;2.60;;
23206;SDS011;11773;52.570;13.052;2023-04-29T06:27:45;1.93;;;1.83;;
23206;SDS011;11773;52.570;13.052;2023-04-29T06:30:15;3.20;;;2.70;;
23206;SDS011;11773;52.570;13.052;2023-04-29T06:32:44;3.70;;;3.30;;
23206;SDS011;11773;52.570;13.052;2023-04-29T06:35:14;3.83;;;3.43;;
23206;SDS011;11773;52.570;13.052;2023-04-29T06:37:43;4.10;;;3.70;;
23206;SDS011;11773;52.570;13.052;2023-04-29T06:40:13;3.67;;;3.30;;
23206;SDS011;11773;52.570;13.052;2023-04-29T06:42:43;5.43;;;4.93;;
23206;SDS011;11773;52.570;13.052;2023-04-29T06:45:12;4.20;;;3.80;;
23206;SDS011;11773;52.570;13.052;2023-04-29T06:47:42;3.50;;;3.03;;
23206;SDS011;11773;52.570;13.052;2023-04-29T06:50:12;2.83;;;2.53;;
23206;SDS011;11773;52.570;13.052;2023-04-29T06:52:42;3.83;;;3.43;;
23206;SDS011;11773;52.570;13.052;2023-04-29T06:55:11;3.57;;;2.97;;
23206;SDS011;11773;52.570;13.052;2023-04-29T06:57:41;3.00;;;2.70;;
23206;SDS011;11773;52.570;13.052;2023-04-29T07:00:11;3.57;;;3.27;;
23206;SDS011;11773;52.570;13.052;2023-04-29T07:02:41;3.17;;;2.87;;
23206;SDS011;11773;52.570;13.052;2023-04-29T07:05:11;2.63;;;2.40;;
23206;SDS011;11773;52.570;13.052;2023-04-29T07:07:41;2.73;;;2.53;;
23206;SDS011;11773;52.570;13.052;2023-04-29T07:10:10;2.50;;;2.30;;
23206;SDS011;11773;52.570;13.052;2023-04-29T07:12:40;2.73;;;2.47;;
23206;SDS011;11773;52.570;13.052;2023-04-29T07:15:09;3.10;;;2.60;;
23206;SDS011;11773;52.570;13.052;2023-04-29T07:17:39;2.63;;;2.43;;
23206;SDS011;11773;52.570;13.052;2023-04-29T07:20:08;2.20;;;2.00;;
23206;SDS011;11773;52.570;13.052;2023-04-29T07:22:38;2.43;;;2.20;;
23206;SDS011;11773;52.570;13.052;2023-04-29T07:25:08;2.33;;;2.13;;
23206;SDS011;11773;52.570;13.052;2023-04-29T07:27:38;2.33;;;2.13;;
23206;SDS011;11773;52.570;13.052;2023-04-29T07:30:07;2.40;;;2.20;;
23206;SDS011;11773;52.570;13.052;2023-04-29T07:32:37;2.00;;;1.90;;
23206;SDS011;11773;52.570;13.052;2023-04-29T07:35:07;2.17;;;2.03;;
23206;SDS011;11773;52.570;13.052;2023-04-29T07:37:36;2.13;;;1.93;;
23206;SDS011;11773;52.570;13.052;2023-04-29T07:40:09;1.83;;;1.73;;
23206;SDS011;11773;52.570;13.052;2023-04-29T07:42:39;2.23;;;1.93;;
23206;SDS011;11773;52.570;13.052;2023-04-29T07:45:08;2.20;;;2.00;;
23206;SDS011;11773;52.570;13.052;2023-04-29T07:47:39;1.87;;;1.77;;
23206;SDS011;11773;52.570;13.052;2023-04-29T07:50:09;1.60;;;1.50;;
23206;SDS011;11773;52.570;13.052;2023-04-29T07:52:39;1.63;;;1.53;;
23206;SDS011;11773;52.570;13.052;2023-04-29T07:55:08;1.87;;;1.77;;
23206;SDS011;11773;52.570;13.052;2023-04-29T07:57:38;1.87;;;1.67;;
23206;SDS011;11773;52.570;13.052;2023-04-29T08:00:07;2.00;;;1.90;;
23206;SDS011;11773;52.570;13.052;2023-04-29T08:02:38;1.30;;;1.20;;
23206;SDS011;11773;52.570;13.052;2023-04-29T08:05:09;2.40;;;2.20;;
23206;SDS011;11773;52.570;13.052;2023-04-29T08:07:39;2.50;;;2.30;;
23206;SDS011;11773;52.570;13.052;2023-04-29T08:10:08;1.90;;;1.80;;
23206;SDS011;11773;52.570;13.052;2023-04-29T08:12:38;1.70;;;1.60;;
23206;SDS011;11773;52.570;13.052;2023-04-29T08:15:08;1.50;;;1.40;;
23206;SDS011;11773;52.570;13.052;2023-04-29T08:17:38;2.53;;;2.33;;
23206;SDS011;11773;52.570;13.052;2023-04-29T08:20:07;2.47;;;2.20;;
23206;SDS011;11773;52.570;13.052;2023-04-29T08:22:37;1.87;;;1.77;;
23206;SDS011;11773;52.570;13.052;2023-04-29T08:25:07;2.77;;;2.57;;
23206;SDS011;11773;52.570;13.052;2023-04-29T08:27:37;2.70;;;2.50;;
23206;SDS011;11773;52.570;13.052;2023-04-29T08:30:07;2.77;;;2.53;;
23206;SDS011;11773;52.570;13.052;2023-04-29T08:32:36;2.40;;;2.20;;
23206;SDS011;11773;52.570;13.052;2023-04-29T08:35:06;1.87;;;1.67;;
23206;SDS011;11773;52.570;13.052;2023-04-29T08:37:36;2.13;;;1.90;;
23206;SDS011;11773;52.570;13.052;2023-04-29T08:40:06;3.57;;;3.20;;
23206;SDS011;11773;52.570;13.052;2023-04-29T08:42:36;3.40;;;3.10;;
23206;SDS011;11773;52.570;13.052;2023-04-29T08:45:07;4.40;;;4.00;;
23206;SDS011;11773;52.570;13.052;2023-04-29T08:47:37;3.00;;;2.70;;
23206;SDS011;11773;52.570;13.052;2023-04-29T08:50:07;3.87;;;3.53;;
23206;SDS011;11773;52.570;13.052;2023-04-29T08:52:37;4.40;;;4.00;;
23206;SDS011;11773;52.570;13.052;2023-04-29T08:55:07;6.30;;;5.13;;
23206;SDS011;11773;52.570;13.052;2023-04-29T08:57:37;3.77;;;3.47;;
23206;SDS011;11773;52.570;13.052;2023-04-29T09:00:10;4.30;;;3.90;;
23206;SDS011;11773;52.570;13.052;2023-04-29T09:02:42;3.83;;;3.43;;
23206;SDS011;11773;52.570;13.052;2023-04-29T09:05:17;4.77;;;3.80;;
23206;SDS011;11773;52.570;13.052;2023-04-29T09:07:49;4.20;;;3.80;;
23206;SDS011;11773;52.570;13.052;2023-04-29T09:10:19;3.60;;;3.30;;
23206;SDS011;11773;52.570;13.052;2023-04-29T09:12:49;4.43;;;4.00;;
23206;SDS011;11773;52.570;13.052;2023-04-29T09:15:18;3.70;;;3.40;;
23206;SDS011;11773;52.570;13.052;2023-04-29T09:17:48;4.40;;;4.00;;
23206;SDS011;11773;52.570;13.052;2023-04-29T09:22:58;4.40;;;4.00;;
23206;SDS011;11773;52.570;13.052;2023-04-29T09:25:32;5.50;;;5.00;;
23206;SDS011;11773;52.570;13.052;2023-04-29T09:28:13;4.97;;;4.37;;
23206;SDS011;11773;52.570;13.052;2023-04-29T09:30:46;3.50;;;3.20;;
23206;SDS011;11773;52.570;13.052;2023-04-29T09:33:16;5.03;;;4.10;;
23206;SDS011;11773;52.570;13.052;2023-04-29T09:35:46;3.93;;;3.63;;
23206;SDS011;11773;52.570;13.052;2023-04-29T09:38:15;4.63;;;4.17;;
23206;SDS011;11773;52.570;13.052;2023-04-29T09:40:45;4.40;;;4.00;;
23206;SDS011;11773;52.570;13.052;2023-04-29T09:43:17;4.03;;;3.63;;
23206;SDS011;11773;52.570;13.052;2023-04-29T09:45:47;6.40;;;4.93;;
23206;SDS011;11773;52.570;13.052;2023-04-29T09:48:17;4.40;;;4.00;;
23206;SDS011;11773;52.570;13.052;2023-04-29T09:50:57;3.87;;;3.47;;
23206;SDS011;11773;52.570;13.052;2023-04-29T09:53:29;5.63;;;4.43;;
23206;SDS011;11773;52.570;13.052;2023-04-29T09:55:59;4.23;;;3.83;;
23206;SDS011;11773;52.570;13.052;2023-04-29T09:58:32;4.87;;;4.23;;
23206;SDS011;11773;52.570;13.052;2023-04-29T10:01:05;4.53;;;4.13;;
23206;SDS011;11773;52.570;13.052;2023-04-29T10:03:35;3.57;;;3.27;;
23206;SDS011;11773;52.570;13.052;2023-04-29T10:06:06;4.00;;;3.50;;
23206;SDS011;11773;52.570;13.052;2023-04-29T10:08:35;3.87;;;3.47;;
23206;SDS011;11773;52.570;13.052;2023-04-29T10:11:07;3.30;;;3.00;;
23206;SDS011;11773;52.570;13.052;2023-04-29T10:13:41;3.97;;;3.60;;
23206;SDS011;11773;52.570;13.052;2023-04-29T10:16:30;4.10;;;3.80;;
23206;SDS011;11773;52.570;13.052;2023-04-29T10:18:59;3.90;;;3.57;;
23206;SDS011;11773;52.570;13.052;2023-04-29T10:21:33;4.00;;;3.60;;
23206;SDS011;11773;52.570;13.052;2023-04-29T10:24:03;4.23;;;3.83;;
23206;SDS011;11773;52.570;13.052;2023-04-29T10:26:36;5.20;;;4.70;;
23206;SDS011;11773;52.570;13.052;2023-04-29T10:29:08;4.80;;;4.40;;
23206;SDS011;11773;52.570;13.052;2023-04-29T10:31:42;5.00;;;4.50;;
23206;SDS011;11773;52.570;13.052;2023-04-29T10:34:14;4.30;;;3.90;;
23206;SDS011;11773;52.570;13.052;2023-04-29T10:36:45;4.43;;;3.77;;
23206;SDS011;11773;52.570;13.052;2023-04-29T10:39:20;5.10;;;4.60;;
23206;SDS011;11773;52.570;13.052;2023-04-29T10:41:50;3.70;;;3.40;;
23206;SDS011;11773;52.570;13.052;2023-04-29T10:44:20;4.57;;;4.17;;
23206;SDS011;11773;52.570;13.052;2023-04-29T10:47:05;4.70;;;4.30;;
23206;SDS011;11773;52.570;13.052;2023-04-29T10:49:32;3.90;;;3.60;;
23206;SDS011;11773;52.570;13.052;2023-04-29T10:52:03;5.10;;;4.60;;
23206;SDS011;11773;52.570;13.052;2023-04-29T10:54:33;6.03;;;5.30;;
23206;SDS011;11773;52.570;13.052;2023-04-29T10:57:03;5.37;;;4.80;;
23206;SDS011;11773;52.570;13.052;2023-04-29T11:02:07;6.70;;;6.03;;
23206;SDS011;11773;52.570;13.052;2023-04-29T11:05:28;5.23;;;4.73;;
23206;SDS011;11773;52.570;13.052;2023-04-29T11:07:36;4.63;;;4.23;;
23206;SDS011;11773;52.570;13.052;2023-04-29T11:10:07;4.23;;;3.90;;
23206;SDS011;11773;52.570;13.052;2023-04-29T11:12:37;3.40;;;3.10;;
23206;SDS011;11773;52.570;13.052;2023-04-29T11:15:06;4.67;;;4.27;;
23206;SDS011;11773;52.570;13.052;2023-04-29T11:17:37;3.43;;;3.13;;
23206;SDS011;11773;52.570;13.052;2023-04-29T11:20:12;3.42;;;3.12;;
23206;SDS011;11773;52.570;13.052;2023-04-29T11:22:43;3.30;;;3.00;;
23206;SDS011;11773;52.570;13.052;2023-04-29T11:25:16;3.30;;;3.00;;
23206;SDS011;11773;52.570;13.052;2023-04-29T11:27:46;2.90;;;2.70;;
23206;SDS011;11773;52.570;13.052;2023-04-29T11:30:18;3.20;;;2.90;;
23206;SDS011;11773;52.570;13.052;2023-04-29T11:32:48;2.50;;;2.30;;
23206;SDS011;11773;52.570;13.052;2023-04-29T11:35:18;2.63;;;2.43;;
23206;SDS011;11773;52.570;13.052;2023-04-29T11:37:48;3.77;;;3.43;;
23206;SDS011;11773;52.570;13.052;2023-04-29T11:40:18;3.00;;;2.80;;
23206;SDS011;11773;52.570;13.052;2023-04-29T11:42:48;3.37;;;3.07;;
23206;SDS011;11773;52.570;13.052;2023-04-29T11:45:18;4.27;;;3.87;;
23206;SDS011;11773;52.570;13.052;2023-04-29T11:47:48;3.87;;;3.57;;
23206;SDS011;11773;52.570;13.052;2023-04-29T11:50:19;4.67;;;4.27;;
23206;SDS011;11773;52.570;13.052;2023-04-29T11:52:49;4.00;;;3.60;;
23206;SDS011;11773;52.570;13.052;2023-04-29T11:55:18;3.90;;;3.60;;
23206;SDS011;11773;52.570;13.052;2023-04-29T11:57:48;4.70;;;3.53;;
23206;SDS011;11773;52.570;13.052;2023-04-29T12:00:19;4.67;;;3.70;;
23206;SDS011;11773;52.570;13.052;2023-04-29T12:02:48;4.07;;;3.77;;
23206;SDS011;11773;52.570;13.052;2023-04-29T12:05:18;3.70;;;3.40;;
23206;SDS011;11773;52.570;13.052;2023-04-29T12:07:48;3.43;;;2.80;;
23206;SDS011;11773;52.570;13.052;2023-04-29T12:10:18;3.40;;;3.10;;
23206;SDS011;11773;52.570;13.052;2023-04-29T12:12:47;3.10;;;2.90;;
23206;SDS011;11773;52.570;13.052;2023-04-29T12:15:17;3.30;;;2.90;;
23206;SDS011;11773;52.570;13.052;2023-04-29T12:17:47;3.57;;;3.27;;
23206;SDS011;11773;52.570;13.052;2023-04-29T12:20:16;3.10;;;2.85;;
23206;SDS011;11773;52.570;13.052;2023-04-29T12:22:46;3.10;;;2.80;;
23206;SDS011;11773;52.570;13.052;2023-04-29T12:25:16;2.77;;;2.50;;
23206;SDS011;11773;52.570;13.052;2023-04-29T12:27:46;3.13;;;2.40;;
23206;SDS011;11773;52.570;13.052;2023-04-29T12:30:16;1.60;;;1.50;;
23206;SDS011;11773;52.570;13.052;2023-04-29T12:32:47;2.53;;;2.33;;
23206;SDS011;11773;52.570;13.052;2023-04-29T12:35:19;2.00;;;1.70;;
23206;SDS011;11773;52.570;13.052;2023-04-29T12:37:49;2.00;;;1.80;;
23206;SDS011;11773;52.570;13.052;2023-04-29T12:40:19;2.13;;;1.93;;
23206;SDS011;11773;52.570;13.052;2023-04-29T12:42:49;1.60;;;1.50;;
23206;SDS011;11773;52.570;13.052;2023-04-29T12:45:27;1.80;;;1.70;;
23206;SDS011;11773;52.570;13.052;2023-04-29T12:48:00;1.50;;;1.40;;
23206;SDS011;11773;52.570;13.052;2023-04-29T12:50:35;2.50;;;2.30;;
23206;SDS011;11773;52.570;13.052;2023-04-29T12:53:06;2.77;;;2.57;;
23206;SDS011;11773;52.570;13.052;2023-04-29T12:55:37;2.73;;;2.53;;
23206;SDS011;11773;52.570;13.052;2023-04-29T12:58:07;3.17;;;2.80;;
23206;SDS011;11773;52.570;13.052;2023-04-29T13:00:36;2.80;;;2.60;;
23206;SDS011;11773;52.570;13.052;2023-04-29T13:03:06;3.30;;;3.00;;
23206;SDS011;11773;52.570;13.052;2023-04-29T13:05:36;3.07;;;2.77;;
23206;SDS011;11773;52.570;13.052;2023-04-29T13:08:06;2.90;;;2.67;;
23206;SDS011;11773;52.570;13.052;2023-04-29T13:10:36;3.60;;;2.93;;
23206;SDS011;11773;52.570;13.052;2023-04-29T13:13:06;3.23;;;2.80;;
23206;SDS011;11773;52.570;13.052;2023-04-29T13:15:38;2.73;;;2.43;;
23206;SDS011;11773;52.570;13.052;2023-04-29T13:18:08;3.93;;;3.53;;
23206;SDS011;11773;52.570;13.052;2023-04-29T13:20:38;2.93;;;2.63;;
23206;SDS011;11773;52.570;13.052;2023-04-29T13:23:08;2.50;;;2.30;;
23206;SDS011;11773;52.570;13.052;2023-04-29T13:25:41;2.60;;;2.40;;
23206;SDS011;11773;52.570;13.052;2023-04-29T13:28:10;2.27;;;2.07;;
23206;SDS011;11773;52.570;13.052;2023-04-29T13:30:40;2.93;;;2.73;;
23206;SDS011;11773;52.570;13.052;2023-04-29T13:33:09;2.80;;;2.60;;
23206;SDS011;11773;52.570;13.052;2023-04-29T13:35:39;2.43;;;2.07;;
23206;SDS011;11773;52.570;13.052;2023-04-29T13:38:09;2.63;;;2.13;;
23206;SDS011;11773;52.570;13.052;2023-04-29T13:40:38;2.30;;;2.10;;
23206;SDS011;11773;52.570;13.052;2023-04-29T13:43:10;2.40;;;2.20;;
23206;SDS011;11773;52.570;13.052;2023-04-29T13:45:41;2.17;;;1.87;;
23206;SDS011;11773;52.570;13.052;2023-04-29T13:48:12;1.90;;;1.80;;
23206;SDS011;11773;52.570;13.052;2023-04-29T13:50:43;2.27;;;2.07;;
23206;SDS011;11773;52.570;13.052;2023-04-29T13:53:14;1.53;;;1.43;;
23206;SDS011;11773;52.570;13.052;2023-04-29T13:55:46;1.67;;;1.57;;
23206;SDS011;11773;52.570;13.052;2023-04-29T13:58:17;1.40;;;1.30;;
23206;SDS011;11773;52.570;13.052;2023-04-29T14:00:48;1.90;;;1.80;;
23206;SDS011;11773;52.570;13.052;2023-04-29T14:03:19;1.80;;;1.70;;
23206;SDS011;11773;52.570;13.052;2023-04-29T14:05:49;2.40;;;2.20;;
23206;SDS011;11773;52.570;13.052;2023-04-29T14:08:18;2.23;;;2.00;;
23206;SDS011;11773;52.570;13.052;2023-04-29T14:10:48;2.50;;;2.30;;
23206;SDS011;11773;52.570;13.052;2023-04-29T14:13:18;1.60;;;1.50;;
23206;SDS011;11773;52.570;13.052;2023-04-29T14:15:48;1.50;;;1.40;;
23206;SDS011;11773;52.570;13.052;2023-04-29T14:18:17;1.70;;;1.60;;
23206;SDS011;11773;52.570;13.052;2023-04-29T14:20:47;1.73;;;1.63;;
23206;SDS011;11773;52.570;13.052;2023-04-29T14:23:16;2.57;;;2.37;;
23206;SDS011;11773;52.570;13.052;2023-04-29T14:25:46;2.70;;;2.50;;
23206;SDS011;11773;52.570;13.052;2023-04-29T14:28:15;2.03;;;1.87;;
23206;SDS011;11773;52.570;13.052;2023-04-29T14:30:45;2.13;;;1.97;;
23206;SDS011;11773;52.570;13.052;2023-04-29T14:33:14;1.67;;;1.57;;
23206;SDS011;11773;52.570;13.052;2023-04-29T14:35:44;2.27;;;2.07;;
23206;SDS011;11773;52.570;13.052;2023-04-29T14:38:13;1.70;;;1.60;;
23206;SDS011;11773;52.570;13.052;2023-04-29T14:40:43;1.90;;;1.80;;
23206;SDS011;11773;52.570;13.052;2023-04-29T14:43:13;2.20;;;2.00;;
23206;SDS011;11773;52.570;13.052;2023-04-29T14:45:42;1.83;;;1.73;;
23206;SDS011;11773;52.570;13.052;2023-04-29T14:48:13;2.50;;;2.30;;
23206;SDS011;11773;52.570;13.052;2023-04-29T14:50:42;1.77;;;1.67;;
23206;SDS011;11773;52.570;13.052;2023-04-29T14:53:12;1.80;;;1.70;;
23206;SDS011;11773;52.570;13.052;2023-04-29T14:55:42;1.97;;;1.87;;
23206;SDS011;11773;52.570;13.052;2023-04-29T14:58:12;1.83;;;1.73;;
23206;SDS011;11773;52.570;13.052;2023-04-29T15:00:42;1.87;;;1.77;;
23206;SDS011;11773;52.570;13.052;2023-04-29T15:03:11;1.83;;;1.73;;